Nahanni Butte, Canada
Current Conditions -  °F | °C
As of 9:00 PM on Thursday 18 Dec 2014 (Local Time) from CYFS Reporting Station
Clear Clear  
Wind Chill: -17°   Ceiling: Unl
Heat Index: -17°   Visibility: 15mi
Dew Point: -24°   Wind: 0mph
Humidity: 70%   Direction: NA
Pressure: 29.79"   Gusts: NA
Location:  61.05°N, 123.37°W
Report Text: CYFS 190400Z 00000KT 15SM SKC M27/M31 A2979 RMK SLP112
Loading
Personal Weather Stations






























Interactive Weather Map New forecast layout! Learn more

10-Day Weather Forecast

Advertisements
Track Severe Weather on mobile